createdAt,value
2023-04-22T00:00:19.361Z,79.63
2023-04-22T00:02:49.077Z,80.42
2023-04-22T00:05:20.520Z,81.41
2023-04-22T00:07:53.034Z,81.45
2023-04-22T00:10:22.530Z,81.38
2023-04-22T00:12:52.052Z,80.70
2023-04-22T00:15:22.268Z,80.55
2023-04-22T00:17:52.180Z,80.76
2023-04-22T00:20:23.523Z,81.42
2023-04-22T00:22:55.635Z,82.25
2023-04-22T00:25:25.115Z,83.54
2023-04-22T00:27:54.650Z,85.22
2023-04-22T00:30:24.200Z,86.84
2023-04-22T00:32:53.746Z,87.88
2023-04-22T00:35:23.339Z,88.87
2023-04-22T00:37:55.507Z,89.53
2023-04-22T00:40:25.326Z,89.81
2023-04-22T00:42:54.899Z,91.04
2023-04-22T00:45:24.509Z,92.62
2023-04-22T00:47:54.956Z,98.46
2023-04-22T00:50:24.500Z,100.00
2023-04-22T00:52:56.652Z,99.41
2023-04-22T00:55:26.599Z,100.00
2023-04-22T00:57:59.540Z,100.00
2023-04-22T01:00:30.366Z,100.00
2023-04-22T01:03:01.068Z,100.00
2023-04-22T01:05:33.725Z,100.00
2023-04-22T01:08:06.262Z,100.00
2023-04-22T01:10:36.198Z,100.00
2023-04-22T01:13:05.914Z,100.00
2023-04-22T01:15:35.819Z,100.00
2023-04-22T01:18:05.550Z,100.00
2023-04-22T01:20:35.144Z,100.00
2023-04-22T01:23:11.951Z,100.00
2023-04-22T01:25:44.085Z,100.00
2023-04-22T01:28:13.946Z,100.00
2023-04-22T01:30:44.578Z,100.00
2023-04-22T01:33:14.853Z,100.00
2023-04-22T01:35:44.539Z,100.00
2023-04-22T01:38:15.583Z,100.00
2023-04-22T01:40:47.692Z,100.00
2023-04-22T01:43:17.203Z,100.00
2023-04-22T01:45:46.965Z,100.00
2023-04-22T01:48:16.616Z,100.00
2023-04-22T01:50:46.208Z,100.00
2023-04-22T01:53:15.860Z,100.00
2023-04-22T01:55:48.001Z,100.00
2023-04-22T01:58:17.632Z,100.00
2023-04-22T02:00:47.881Z,100.00
2023-04-22T02:03:17.433Z,100.00
2023-04-22T02:05:47.115Z,100.00
2023-04-22T02:08:16.625Z,100.00
2023-04-22T02:10:48.792Z,100.00
2023-04-22T02:13:18.386Z,100.00
2023-04-22T02:15:48.080Z,100.00
2023-04-22T02:18:18.121Z,100.00
2023-04-22T02:20:47.747Z,100.00
2023-04-22T02:23:17.320Z,100.00
2023-04-22T02:25:54.824Z,100.00
2023-04-22T02:28:24.375Z,100.00
2023-04-22T02:30:53.927Z,100.00
2023-04-22T02:33:23.546Z,100.00
2023-04-22T02:35:53.089Z,100.00
2023-04-22T02:38:22.728Z,100.00
2023-04-22T02:40:54.829Z,100.00
2023-04-22T02:43:24.428Z,100.00
2023-04-22T02:45:53.971Z,100.00
2023-04-22T02:48:23.506Z,100.00
2023-04-22T02:50:53.848Z,100.00
2023-04-22T02:53:23.376Z,100.00
2023-04-22T02:55:55.918Z,100.00
2023-04-22T02:58:26.337Z,100.00
2023-04-22T03:00:57.038Z,100.00
2023-04-22T03:03:27.085Z,100.00
2023-04-22T03:05:56.807Z,100.00
2023-04-22T03:08:26.557Z,100.00
2023-04-22T03:10:58.726Z,100.00
2023-04-22T03:13:28.267Z,100.00
2023-04-22T03:15:57.821Z,100.00
2023-04-22T03:18:27.383Z,100.00
2023-04-22T03:20:56.907Z,100.00
2023-04-22T03:23:26.448Z,100.00
2023-04-22T03:25:58.550Z,100.00
2023-04-22T03:28:28.090Z,100.00
2023-04-22T03:30:57.632Z,100.00
2023-04-22T03:33:27.491Z,100.00
2023-04-22T03:35:57.519Z,100.00
2023-04-22T03:38:27.351Z,100.00
2023-04-22T03:40:59.468Z,100.00
2023-04-22T03:43:29.030Z,100.00
2023-04-22T03:45:58.610Z,100.00
2023-04-22T03:48:29.208Z,100.00
2023-04-22T03:50:58.763Z,100.00
2023-04-22T03:53:28.315Z,100.00
2023-04-22T03:56:00.662Z,100.00
2023-04-22T03:58:30.200Z,100.00
2023-04-22T04:00:59.728Z,100.00
2023-04-22T04:03:30.999Z,100.00
2023-04-22T04:06:00.854Z,100.00
2023-04-22T04:08:30.945Z,100.00
2023-04-22T04:11:03.063Z,100.00
2023-04-22T04:13:32.723Z,99.37
2023-04-22T04:16:02.460Z,97.35
2023-04-22T04:18:32.907Z,93.14
2023-04-22T04:21:02.459Z,90.97
2023-04-22T04:23:32.325Z,88.91
2023-04-22T04:26:05.845Z,85.11
2023-04-22T04:28:36.324Z,81.21
2023-04-22T04:31:06.047Z,77.78
2023-04-22T04:33:37.162Z,76.15
2023-04-22T04:36:08.962Z,73.01
2023-04-22T04:38:39.210Z,70.00
2023-04-22T04:41:11.492Z,69.47
2023-04-22T04:43:41.048Z,70.68
2023-04-22T04:46:11.146Z,70.20
2023-04-22T04:48:42.498Z,71.72
2023-04-22T04:51:12.737Z,72.81
2023-04-22T04:53:43.744Z,72.42
2023-04-22T04:56:17.011Z,66.91
2023-04-22T04:58:46.540Z,63.03
2023-04-22T05:01:16.137Z,59.85
2023-04-22T05:03:45.862Z,59.34
2023-04-22T05:06:15.493Z,57.52
2023-04-22T05:08:45.066Z,55.39
2023-04-22T05:11:17.214Z,50.79
2023-04-22T05:13:48.006Z,48.97
2023-04-22T05:16:17.731Z,45.03
2023-04-22T05:18:47.299Z,40.77
2023-04-22T05:21:17.025Z,39.59
2023-04-22T05:23:46.560Z,37.11
2023-04-22T05:26:18.812Z,39.72
2023-04-22T05:28:48.350Z,44.20
2023-04-22T05:31:17.939Z,46.21
2023-04-22T05:33:47.480Z,42.62
2023-04-22T05:36:17.164Z,42.20
2023-04-22T05:38:46.703Z,43.30
2023-04-22T05:41:18.890Z,41.78
2023-04-22T05:43:48.470Z,42.68
2023-04-22T05:46:18.101Z,42.85
2023-04-22T05:48:49.139Z,42.59
2023-04-22T05:51:18.767Z,42.22
2023-04-22T05:53:48.332Z,43.03
2023-04-22T05:56:21.172Z,44.81
2023-04-22T05:58:50.686Z,42.61
2023-04-22T06:01:20.304Z,41.73
2023-04-22T06:03:50.065Z,37.15
2023-04-22T06:06:20.077Z,37.70
2023-04-22T06:08:49.620Z,39.01
2023-04-22T06:11:22.251Z,37.89
2023-04-22T06:13:52.014Z,38.38
2023-04-22T06:16:21.602Z,37.85
2023-04-22T06:18:51.263Z,39.39
2023-04-22T06:21:20.846Z,37.88
2023-04-22T06:23:50.450Z,40.87
2023-04-22T06:26:22.776Z,40.36
2023-04-22T06:28:52.456Z,38.43
2023-04-22T06:31:22.100Z,37.06
2023-04-22T06:33:51.786Z,38.15
2023-04-22T06:36:21.366Z,38.23
2023-04-22T06:38:50.872Z,35.59
2023-04-22T06:41:24.000Z,33.64
2023-04-22T06:43:53.592Z,32.41
2023-04-22T06:46:23.168Z,35.60
2023-04-22T06:48:52.802Z,35.65
2023-04-22T06:51:22.559Z,35.82
2023-04-22T06:53:52.090Z,36.54
2023-04-22T06:56:24.247Z,34.43
2023-04-22T06:58:53.867Z,32.32
2023-04-22T07:01:23.407Z,31.06
2023-04-22T07:03:53.053Z,28.13
2023-04-22T07:06:22.707Z,27.36
2023-04-22T07:08:52.309Z,28.62
2023-04-22T07:11:24.501Z,28.01
2023-04-22T07:13:54.045Z,27.43
2023-04-22T07:16:23.612Z,29.19
2023-04-22T07:18:53.393Z,28.67
2023-04-22T07:21:23.091Z,28.25
2023-04-22T07:23:52.801Z,29.27
2023-04-22T07:26:24.969Z,29.84
2023-04-22T07:28:54.704Z,28.97
2023-04-22T07:31:24.278Z,29.35
2023-04-22T07:33:53.852Z,29.38
2023-04-22T07:36:23.659Z,26.40
2023-04-22T07:38:53.239Z,26.72
2023-04-22T07:41:25.337Z,25.91
2023-04-22T07:43:55.638Z,25.68
2023-04-22T07:46:25.199Z,25.82
2023-04-22T07:48:54.785Z,26.54
2023-04-22T07:51:25.958Z,26.51
2023-04-22T07:53:55.630Z,27.69
2023-04-22T07:56:27.734Z,25.94
2023-04-22T07:58:57.298Z,25.98
2023-04-22T08:01:26.842Z,26.50
2023-04-22T08:03:56.468Z,25.59
2023-04-22T08:06:26.293Z,25.30
2023-04-22T08:08:55.887Z,26.02
2023-04-22T08:11:28.122Z,25.47
2023-04-22T08:13:57.710Z,26.25
2023-04-22T08:16:27.449Z,26.13
2023-04-22T08:18:57.962Z,25.83
2023-04-22T08:21:27.556Z,25.28
2023-04-22T08:23:57.114Z,25.20
2023-04-22T08:26:29.338Z,26.90
2023-04-22T08:28:59.060Z,25.67
2023-04-22T08:31:28.622Z,25.67
2023-04-22T08:33:58.636Z,26.22
2023-04-22T08:36:28.594Z,26.76
2023-04-22T08:38:58.180Z,26.20
2023-04-22T08:41:30.791Z,25.93
2023-04-22T08:44:00.698Z,26.65
2023-04-22T08:46:30.475Z,26.04
2023-04-22T08:49:04.020Z,26.00
2023-04-22T08:51:35.118Z,25.28
2023-04-22T08:54:04.817Z,25.97
2023-04-22T08:56:38.225Z,26.76
2023-04-22T08:59:08.059Z,28.04
2023-04-22T09:01:38.680Z,26.17
2023-04-22T09:04:09.313Z,26.58
2023-04-22T09:06:41.309Z,27.43
2023-04-22T09:09:11.620Z,26.56
2023-04-22T09:11:44.212Z,26.54
2023-04-22T09:14:13.753Z,25.25
2023-04-22T09:16:44.935Z,26.64
2023-04-22T09:19:15.916Z,26.73
2023-04-22T09:21:49.096Z,27.08
2023-04-22T09:24:20.850Z,28.15
2023-04-22T09:26:53.008Z,24.63
2023-04-22T09:29:22.594Z,24.31
2023-04-22T09:31:53.288Z,25.55
2023-04-22T09:34:25.059Z,27.03
2023-04-22T09:36:54.638Z,27.49
2023-04-22T09:39:26.477Z,27.09
2023-04-22T09:42:00.054Z,25.97
2023-04-22T09:44:30.533Z,26.44
2023-04-22T09:47:00.106Z,27.70
2023-04-22T09:49:30.624Z,27.52
2023-04-22T09:52:00.733Z,27.48
2023-04-22T09:54:30.270Z,24.89
2023-04-22T09:57:02.671Z,24.75
2023-04-22T09:59:33.064Z,27.01
2023-04-22T10:02:04.773Z,26.63
2023-04-22T10:04:34.867Z,25.73
2023-04-22T10:07:04.695Z,24.46
2023-04-22T10:09:34.385Z,22.96
2023-04-22T10:12:07.931Z,23.22
2023-04-22T10:14:37.455Z,23.78
2023-04-22T10:17:08.433Z,27.88
2023-04-22T10:19:38.890Z,28.51
2023-04-22T10:22:10.640Z,29.51
2023-04-22T10:24:41.048Z,27.62
2023-04-22T10:27:13.696Z,26.26
2023-04-22T10:29:44.214Z,26.25
2023-04-22T10:32:29.231Z,25.23
2023-04-22T10:35:15.276Z,26.25
2023-04-22T10:37:46.193Z,28.19
2023-04-22T10:40:19.111Z,26.52
2023-04-22T10:42:56.059Z,25.55
2023-04-22T10:45:27.943Z,24.97
2023-04-22T10:47:57.579Z,24.42
2023-04-22T10:50:28.793Z,26.13
2023-04-22T10:53:00.474Z,25.98
2023-04-22T10:55:53.683Z,26.15
2023-04-22T10:58:27.506Z,25.38
2023-04-22T11:01:03.310Z,25.20
2023-04-22T11:03:33.608Z,25.54
2023-04-22T11:06:19.821Z,25.58
2023-04-22T11:08:50.631Z,25.72
2023-04-22T11:11:21.432Z,26.13
2023-04-22T11:13:53.723Z,24.39
2023-04-22T11:16:25.169Z,24.00
2023-04-22T11:18:55.399Z,23.42
2023-04-22T11:21:26.338Z,22.77
2023-04-22T11:23:57.163Z,23.14
2023-04-22T11:26:37.816Z,24.41
2023-04-22T11:29:11.400Z,23.02
2023-04-22T11:31:41.018Z,24.05
2023-04-22T11:34:12.129Z,24.56
2023-04-22T11:36:45.627Z,25.45
2023-04-22T11:39:16.941Z,23.16
2023-04-22T11:41:46.636Z,24.47
2023-04-22T11:44:19.551Z,24.71
2023-04-22T11:46:49.074Z,25.56
2023-04-22T11:49:19.833Z,24.61
2023-04-22T11:51:57.242Z,24.21
2023-04-22T11:54:34.298Z,25.02
2023-04-22T11:57:05.846Z,26.06
2023-04-22T11:59:38.275Z,27.26
2023-04-22T12:02:08.668Z,27.63
2023-04-22T12:04:42.679Z,28.20
2023-04-22T12:07:12.291Z,29.36
2023-04-22T12:09:42.382Z,29.03
2023-04-22T12:12:12.111Z,28.98
2023-04-22T12:14:48.524Z,29.88
2023-04-22T12:17:20.198Z,29.67
2023-04-22T12:19:50.461Z,29.22
2023-04-22T12:22:27.088Z,29.26
2023-04-22T12:24:56.933Z,30.51
2023-04-22T12:27:26.510Z,30.91
2023-04-22T12:29:59.408Z,32.56
2023-04-22T12:32:29.962Z,31.25
2023-04-22T12:34:59.478Z,31.70
2023-04-22T12:37:29.020Z,30.93
2023-04-22T12:39:58.549Z,30.46
2023-04-22T12:42:28.106Z,30.38
2023-04-22T12:45:00.233Z,31.86
2023-04-22T12:47:29.853Z,32.52
2023-04-22T12:50:01.444Z,31.90
2023-04-22T12:52:31.423Z,31.43
2023-04-22T12:55:00.932Z,29.44
2023-04-22T12:57:30.518Z,29.40
2023-04-22T13:00:04.440Z,30.37
2023-04-22T13:02:34.143Z,30.85
2023-04-22T13:05:03.757Z,29.85
2023-04-22T13:07:35.483Z,29.09
2023-04-22T13:10:05.215Z,29.10
2023-04-22T13:12:35.878Z,29.10
2023-04-22T13:15:11.040Z,29.34
2023-04-22T13:17:41.240Z,30.11
2023-04-22T13:20:14.261Z,30.62
2023-04-22T13:22:44.212Z,29.13
2023-04-22T13:25:13.950Z,29.09
2023-04-22T13:27:43.477Z,29.25
2023-04-22T13:30:16.895Z,28.48
2023-04-22T13:32:46.520Z,26.64
2023-04-22T13:35:18.231Z,26.96
2023-04-22T13:37:47.785Z,27.19
2023-04-22T13:40:17.370Z,28.22
2023-04-22T13:42:47.065Z,27.12
2023-04-22T13:45:19.277Z,28.23
2023-04-22T13:47:48.962Z,28.66
2023-04-22T13:50:18.515Z,28.13
2023-04-22T13:52:48.238Z,28.46
2023-04-22T13:55:17.791Z,28.15
2023-04-22T13:57:47.855Z,27.80
2023-04-22T14:00:21.049Z,27.74
2023-04-22T14:02:51.041Z,27.82
2023-04-22T14:05:20.823Z,29.02
2023-04-22T14:07:50.392Z,30.08
2023-04-22T14:10:20.542Z,30.47
2023-04-22T14:12:50.348Z,31.12
2023-04-22T14:15:22.726Z,30.52
2023-04-22T14:17:52.227Z,30.29
2023-04-22T14:20:21.796Z,30.63
2023-04-22T14:22:51.339Z,31.41
2023-04-22T14:25:21.118Z,31.45
2023-04-22T14:27:50.717Z,31.10
2023-04-22T14:30:23.128Z,30.44
2023-04-22T14:32:53.262Z,29.87
2023-04-22T14:35:22.930Z,30.78
2023-04-22T14:37:52.539Z,30.75
2023-04-22T14:40:26.300Z,30.49
2023-04-22T14:42:55.983Z,31.43
2023-04-22T14:45:29.025Z,30.75
2023-04-22T14:47:58.801Z,29.95
2023-04-22T14:50:28.942Z,28.74
2023-04-22T14:52:59.099Z,29.09
2023-04-22T14:55:29.321Z,29.96
2023-04-22T14:57:59.575Z,30.00
2023-04-22T15:00:32.284Z,29.72
2023-04-22T15:03:02.018Z,30.13
2023-04-22T15:05:31.680Z,30.67
2023-04-22T15:08:01.210Z,29.97
2023-04-22T15:10:31.040Z,29.51
2023-04-22T15:13:01.607Z,29.83
2023-04-22T15:15:33.794Z,29.53
2023-04-22T15:18:03.425Z,30.45
2023-04-22T15:20:33.105Z,31.75
2023-04-22T15:23:04.020Z,31.12
2023-04-22T15:25:33.616Z,30.52
2023-04-22T15:28:03.572Z,30.27
2023-04-22T15:30:35.730Z,30.45
2023-04-22T15:33:05.403Z,30.40
2023-04-22T15:35:35.029Z,30.80
2023-04-22T15:38:04.822Z,32.01
2023-04-22T15:40:34.392Z,32.67
2023-04-22T15:43:03.942Z,32.69
2023-04-22T15:45:37.095Z,32.77
2023-04-22T15:48:07.048Z,32.38
2023-04-22T15:50:38.878Z,32.38
2023-04-22T15:53:09.592Z,32.48
2023-04-22T15:55:39.155Z,32.17
2023-04-22T15:58:08.708Z,32.60
2023-04-22T16:00:41.280Z,32.84
2023-04-22T16:03:11.684Z,32.38
2023-04-22T16:05:41.350Z,32.35
2023-04-22T16:08:10.939Z,32.44
2023-04-22T16:10:40.466Z,32.65
2023-04-22T16:13:10.120Z,32.26
2023-04-22T16:15:42.324Z,32.70
2023-04-22T16:18:12.059Z,33.89
2023-04-22T16:20:41.811Z,34.25
2023-04-22T16:23:11.323Z,34.83
2023-04-22T16:25:41.083Z,34.98
2023-04-22T16:28:11.343Z,35.24
2023-04-22T16:30:43.560Z,35.46
2023-04-22T16:33:13.304Z,35.57
2023-04-22T16:35:44.293Z,35.15
2023-04-22T16:38:13.827Z,35.61
2023-04-22T16:40:43.352Z,35.83
2023-04-22T16:43:13.107Z,36.42
2023-04-22T16:45:45.413Z,36.78
2023-04-22T16:48:14.996Z,37.29
2023-04-22T16:50:44.714Z,37.48
2023-04-22T16:53:14.311Z,37.07
2023-04-22T16:55:43.850Z,37.26
2023-04-22T16:58:13.786Z,37.29
2023-04-22T17:00:47.575Z,37.47
2023-04-22T17:03:17.699Z,37.57
2023-04-22T17:05:47.295Z,37.88
2023-04-22T17:08:16.844Z,37.77
2023-04-22T17:10:48.321Z,38.12
2023-04-22T17:13:18.624Z,38.13
2023-04-22T17:15:50.855Z,38.15
2023-04-22T17:18:20.515Z,38.19
2023-04-22T17:20:50.078Z,38.30
2023-04-22T17:23:20.631Z,38.22
2023-04-22T17:25:50.202Z,38.46
2023-04-22T17:28:19.804Z,38.75
2023-04-22T17:30:54.520Z,38.56
2023-04-22T17:33:26.700Z,38.82
2023-04-22T17:35:56.252Z,38.85
2023-04-22T17:38:25.965Z,39.00
2023-04-22T17:40:55.533Z,39.33
2023-04-22T17:43:25.123Z,39.43
2023-04-22T17:45:57.363Z,39.26
2023-04-22T17:48:26.927Z,39.62
2023-04-22T17:50:56.540Z,39.71
2023-04-22T17:53:26.105Z,39.79
2023-04-22T17:55:55.664Z,39.63
2023-04-22T17:58:25.715Z,40.11
2023-04-22T18:00:58.790Z,40.20
2023-04-22T18:03:28.636Z,40.39
2023-04-22T18:05:58.246Z,40.59
2023-04-22T18:08:27.836Z,41.10
2023-04-22T18:10:57.741Z,41.38
2023-04-22T18:13:27.307Z,41.27
2023-04-22T18:15:59.432Z,41.34
2023-04-22T18:18:28.997Z,41.51
2023-04-22T18:20:58.621Z,41.88
2023-04-22T18:23:28.151Z,41.83
2023-04-22T18:25:57.755Z,41.94
2023-04-22T18:28:27.261Z,42.32
2023-04-22T18:30:59.474Z,42.36
2023-04-22T18:33:29.081Z,42.44
2023-04-22T18:36:00.056Z,42.73
2023-04-22T18:38:29.920Z,42.60
2023-04-22T18:40:59.567Z,42.94
2023-04-22T18:43:29.200Z,43.19
2023-04-22T18:46:01.367Z,43.62
2023-04-22T18:48:30.988Z,45.14
2023-04-22T18:51:00.541Z,48.30
2023-04-22T18:53:30.529Z,47.75
2023-04-22T18:56:00.086Z,47.40
2023-04-22T18:58:29.622Z,46.80
2023-04-22T19:01:01.902Z,46.63
2023-04-22T19:03:31.542Z,46.46
2023-04-22T19:06:01.262Z,46.35
2023-04-22T19:08:30.836Z,46.87
2023-04-22T19:11:00.381Z,47.28
2023-04-22T19:13:30.457Z,47.05
2023-04-22T19:16:02.859Z,47.32
2023-04-22T19:18:32.495Z,47.25
2023-04-22T19:21:03.111Z,47.60
2023-04-22T19:23:32.946Z,47.79
2023-04-22T19:26:02.579Z,48.06
2023-04-22T19:28:32.152Z,48.83
2023-04-22T19:31:05.032Z,50.47
2023-04-22T19:33:34.741Z,51.95
2023-04-22T19:36:04.296Z,53.31
2023-04-22T19:38:33.967Z,54.45
2023-04-22T19:41:03.660Z,54.78
2023-04-22T19:43:33.192Z,56.84
2023-04-22T19:46:05.488Z,57.00
2023-04-22T19:48:36.380Z,57.38
2023-04-22T19:51:08.042Z,58.73
2023-04-22T19:53:38.142Z,59.93
2023-04-22T19:56:07.946Z,61.03
2023-04-22T19:58:37.929Z,62.48
2023-04-22T20:01:10.459Z,64.24
2023-04-22T20:03:40.799Z,65.02
2023-04-22T20:06:11.012Z,65.97
2023-04-22T20:08:42.372Z,67.22
2023-04-22T20:11:12.712Z,67.57
2023-04-22T20:13:43.367Z,68.72
2023-04-22T20:16:16.293Z,69.11
2023-04-22T20:18:46.458Z,69.89
2023-04-22T20:21:16.666Z,70.84
2023-04-22T20:23:47.479Z,71.37
2023-04-22T20:26:21.148Z,71.38
2023-04-22T20:28:53.375Z,70.77
2023-04-22T20:31:25.851Z,70.01
2023-04-22T20:33:55.740Z,69.32
2023-04-22T20:36:26.669Z,69.50
2023-04-22T20:38:58.413Z,69.80
2023-04-22T20:41:29.686Z,72.51
2023-04-22T20:43:59.624Z,71.50
2023-04-22T20:46:32.155Z,74.23
2023-04-22T20:49:01.732Z,75.91
2023-04-22T20:51:32.051Z,76.53
2023-04-22T20:54:01.920Z,77.89
2023-04-22T20:56:32.137Z,79.17
2023-04-22T20:59:01.877Z,79.92
2023-04-22T21:01:34.050Z,80.11
2023-04-22T21:04:04.691Z,82.69
2023-04-22T21:06:36.659Z,81.67
2023-04-22T21:09:07.797Z,82.92
2023-04-22T21:11:38.142Z,83.39
2023-04-22T21:14:08.275Z,84.47
2023-04-22T21:16:43.791Z,84.74
2023-04-22T21:19:15.287Z,87.99
2023-04-22T21:21:46.848Z,86.80
2023-04-22T21:24:17.342Z,85.00
2023-04-22T21:26:49.420Z,83.81
2023-04-22T21:29:19.492Z,83.87
2023-04-22T21:32:01.460Z,85.30
2023-04-22T21:34:37.289Z,85.98
2023-04-22T21:37:08.338Z,87.40
2023-04-22T21:39:38.243Z,88.29
2023-04-22T21:42:08.959Z,89.82
2023-04-22T21:44:39.381Z,89.54
2023-04-22T21:47:11.688Z,90.68
2023-04-22T21:49:41.236Z,91.43
2023-04-22T21:52:10.818Z,90.99
2023-04-22T21:54:40.932Z,91.15
2023-04-22T21:57:10.721Z,90.87
2023-04-22T21:59:40.282Z,91.94
2023-04-22T22:02:12.424Z,91.56
2023-04-22T22:04:42.431Z,91.96
2023-04-22T22:07:12.460Z,91.97
2023-04-22T22:09:43.348Z,93.72
2023-04-22T22:12:15.599Z,94.47
2023-04-22T22:14:46.002Z,95.95
2023-04-22T22:17:19.811Z,97.31
2023-04-22T22:19:49.359Z,98.47
2023-04-22T22:22:18.900Z,98.73
2023-04-22T22:24:48.492Z,98.60
2023-04-22T22:27:18.112Z,97.84
2023-04-22T22:29:47.659Z,96.36
2023-04-22T22:32:19.783Z,95.21
2023-04-22T22:34:49.377Z,95.37
2023-04-22T22:37:19.002Z,94.82
2023-04-22T22:39:48.564Z,93.87
2023-04-22T22:42:18.378Z,93.82
2023-04-22T22:44:47.932Z,93.35
2023-04-22T22:47:20.387Z,94.86
2023-04-22T22:49:50.155Z,95.60
2023-04-22T22:52:19.748Z,96.80
2023-04-22T22:54:51.666Z,97.08
2023-04-22T22:57:21.193Z,98.18
2023-04-22T22:59:50.746Z,98.17
2023-04-22T23:02:22.981Z,98.29
2023-04-22T23:04:52.744Z,98.31
2023-04-22T23:07:22.517Z,97.37
2023-04-22T23:09:52.028Z,97.60
2023-04-22T23:12:21.833Z,98.42
2023-04-22T23:14:51.371Z,98.93
2023-04-22T23:17:23.685Z,98.97
2023-04-22T23:19:54.412Z,99.39
2023-04-22T23:22:24.981Z,100.00
2023-04-22T23:24:55.155Z,100.00
2023-04-22T23:27:25.671Z,100.00
2023-04-22T23:29:56.044Z,100.00
2023-04-22T23:32:29.964Z,100.00
2023-04-22T23:35:02.739Z,100.00
2023-04-22T23:37:32.725Z,100.00
2023-04-22T23:40:02.287Z,100.00
2023-04-22T23:42:31.815Z,100.00
2023-04-22T23:45:01.390Z,100.00
2023-04-22T23:47:33.911Z,100.00
2023-04-22T23:50:03.517Z,100.00
2023-04-22T23:52:33.105Z,100.00
2023-04-22T23:55:03.140Z,100.00
2023-04-22T23:57:33.317Z,100.00
